sensor_id;sensor_type;location;lat;lon;timestamp;temperature;humidity
27848;DHT22;15212;48.830;8.730;2022-11-14T00:01:18;4.10;99.90
27848;DHT22;15212;48.830;8.730;2022-11-14T00:03:49;4.20;99.90
27848;DHT22;15212;48.830;8.730;2022-11-14T00:06:17;4.20;99.90
27848;DHT22;15212;48.830;8.730;2022-11-14T00:08:46;4.20;99.90
27848;DHT22;15212;48.830;8.730;2022-11-14T00:11:14;4.20;99.90
27848;DHT22;15212;48.830;8.730;2022-11-14T00:13:42;4.20;99.90
27848;DHT22;15212;48.830;8.730;2022-11-14T00:16:12;4.20;99.90
27848;DHT22;15212;48.830;8.730;2022-11-14T00:18:40;4.20;99.90
27848;DHT22;15212;48.830;8.730;2022-11-14T00:21:08;4.20;99.90
27848;DHT22;15212;48.830;8.730;2022-11-14T00:23:37;4.20;99.90
27848;DHT22;15212;48.830;8.730;2022-11-14T00:26:05;4.20;99.90
27848;DHT22;15212;48.830;8.730;2022-11-14T00:28:33;4.20;99.90
27848;DHT22;15212;48.830;8.730;2022-11-14T00:31:02;4.10;99.90
27848;DHT22;15212;48.830;8.730;2022-11-14T00:33:30;4.10;99.90
27848;DHT22;15212;48.830;8.730;2022-11-14T00:35:59;4.10;99.90
27848;DHT22;15212;48.830;8.730;2022-11-14T00:38:27;3.90;99.90
27848;DHT22;15212;48.830;8.730;2022-11-14T00:40:55;3.90;99.90
27848;DHT22;15212;48.830;8.730;2022-11-14T00:43:24;3.80;99.90
27848;DHT22;15212;48.830;8.730;2022-11-14T00:45:52;3.80;99.90
27848;DHT22;15212;48.830;8.730;2022-11-14T00:48:20;3.80;99.90
27848;DHT22;15212;48.830;8.730;2022-11-14T00:50:49;3.80;99.90
27848;DHT22;15212;48.830;8.730;2022-11-14T00:53:17;3.80;99.90
27848;DHT22;15212;48.830;8.730;2022-11-14T00:55:46;3.80;99.90
27848;DHT22;15212;48.830;8.730;2022-11-14T00:58:14;3.80;99.90
27848;DHT22;15212;48.830;8.730;2022-11-14T01:00:42;3.80;99.90
27848;DHT22;15212;48.830;8.730;2022-11-14T01:03:11;3.90;99.90
27848;DHT22;15212;48.830;8.730;2022-11-14T01:05:43;3.80;99.90
27848;DHT22;15212;48.830;8.730;2022-11-14T01:08:14;3.80;99.90
27848;DHT22;15212;48.830;8.730;2022-11-14T01:10:46;3.80;99.90
27848;DHT22;15212;48.830;8.730;2022-11-14T01:13:17;3.80;99.90
27848;DHT22;15212;48.830;8.730;2022-11-14T01:15:47;3.80;99.90
27848;DHT22;15212;48.830;8.730;2022-11-14T01:18:19;3.80;99.90
27848;DHT22;15212;48.830;8.730;2022-11-14T01:20:48;3.80;99.90
27848;DHT22;15212;48.830;8.730;2022-11-14T01:23:17;3.80;99.90
27848;DHT22;15212;48.830;8.730;2022-11-14T01:25:45;3.80;99.90
27848;DHT22;15212;48.830;8.730;2022-11-14T01:28:16;3.70;99.90
27848;DHT22;15212;48.830;8.730;2022-11-14T01:30:46;3.70;99.90
27848;DHT22;15212;48.830;8.730;2022-11-14T01:33:14;3.70;99.90
27848;DHT22;15212;48.830;8.730;2022-11-14T01:35:43;3.70;99.90
27848;DHT22;15212;48.830;8.730;2022-11-14T01:38:13;3.70;99.90
27848;DHT22;15212;48.830;8.730;2022-11-14T01:40:43;3.70;99.90
27848;DHT22;15212;48.830;8.730;2022-11-14T01:43:21;3.70;99.90
27848;DHT22;15212;48.830;8.730;2022-11-14T01:46:03;3.70;99.90
27848;DHT22;15212;48.830;8.730;2022-11-14T01:49:33;3.70;99.90
27848;DHT22;15212;48.830;8.730;2022-11-14T01:51:30;3.70;99.90
27848;DHT22;15212;48.830;8.730;2022-11-14T01:54:13;3.70;99.90
27848;DHT22;15212;48.830;8.730;2022-11-14T01:56:47;3.70;99.90
27848;DHT22;15212;48.830;8.730;2022-11-14T01:59:19;3.60;99.90
27848;DHT22;15212;48.830;8.730;2022-11-14T02:01:52;3.60;99.90
27848;DHT22;15212;48.830;8.730;2022-11-14T02:04:32;3.60;99.90
27848;DHT22;15212;48.830;8.730;2022-11-14T02:07:03;3.60;99.90
27848;DHT22;15212;48.830;8.730;2022-11-14T02:09:38;3.50;99.90
27848;DHT22;15212;48.830;8.730;2022-11-14T02:12:11;3.50;99.90
27848;DHT22;15212;48.830;8.730;2022-11-14T02:14:41;3.50;99.90
27848;DHT22;15212;48.830;8.730;2022-11-14T02:17:14;3.50;99.90
27848;DHT22;15212;48.830;8.730;2022-11-14T02:22:18;3.50;99.90
27848;DHT22;15212;48.830;8.730;2022-11-14T02:24:47;3.50;99.90
27848;DHT22;15212;48.830;8.730;2022-11-14T02:27:16;3.40;99.90
27848;DHT22;15212;48.830;8.730;2022-11-14T02:29:44;3.40;99.90
27848;DHT22;15212;48.830;8.730;2022-11-14T02:32:12;3.30;99.90
27848;DHT22;15212;48.830;8.730;2022-11-14T02:34:41;3.30;99.90
27848;DHT22;15212;48.830;8.730;2022-11-14T02:37:09;3.30;99.90
27848;DHT22;15212;48.830;8.730;2022-11-14T02:39:37;3.40;99.90
27848;DHT22;15212;48.830;8.730;2022-11-14T02:42:06;3.40;99.90
27848;DHT22;15212;48.830;8.730;2022-11-14T02:44:34;3.40;99.90
27848;DHT22;15212;48.830;8.730;2022-11-14T02:47:03;3.40;99.90
27848;DHT22;15212;48.830;8.730;2022-11-14T02:49:31;3.30;99.90
27848;DHT22;15212;48.830;8.730;2022-11-14T02:51:59;3.30;99.90
27848;DHT22;15212;48.830;8.730;2022-11-14T02:54:28;3.30;99.90
27848;DHT22;15212;48.830;8.730;2022-11-14T02:56:56;3.30;99.90
27848;DHT22;15212;48.830;8.730;2022-11-14T02:59:24;3.20;99.90
27848;DHT22;15212;48.830;8.730;2022-11-14T03:01:53;3.20;99.90
27848;DHT22;15212;48.830;8.730;2022-11-14T03:04:21;3.20;99.90
27848;DHT22;15212;48.830;8.730;2022-11-14T03:06:50;3.10;99.90
27848;DHT22;15212;48.830;8.730;2022-11-14T03:09:18;3.10;99.90
27848;DHT22;15212;48.830;8.730;2022-11-14T03:11:46;3.10;99.90
27848;DHT22;15212;48.830;8.730;2022-11-14T03:14:15;3.10;99.90
27848;DHT22;15212;48.830;8.730;2022-11-14T03:16:43;3.10;99.90
27848;DHT22;15212;48.830;8.730;2022-11-14T03:19:12;3.10;99.90
27848;DHT22;15212;48.830;8.730;2022-11-14T03:21:40;3.10;99.90
27848;DHT22;15212;48.830;8.730;2022-11-14T03:24:09;3.10;99.90
27848;DHT22;15212;48.830;8.730;2022-11-14T03:26:38;3.10;99.90
27848;DHT22;15212;48.830;8.730;2022-11-14T03:29:06;3.10;99.90
27848;DHT22;15212;48.830;8.730;2022-11-14T03:31:35;3.10;99.90
27848;DHT22;15212;48.830;8.730;2022-11-14T03:34:03;3.10;99.90
27848;DHT22;15212;48.830;8.730;2022-11-14T03:36:32;3.10;99.90
27848;DHT22;15212;48.830;8.730;2022-11-14T03:39:01;3.10;99.90
27848;DHT22;15212;48.830;8.730;2022-11-14T03:41:29;3.10;99.90
27848;DHT22;15212;48.830;8.730;2022-11-14T03:43:58;3.10;99.90
27848;DHT22;15212;48.830;8.730;2022-11-14T03:46:26;3.10;99.90
27848;DHT22;15212;48.830;8.730;2022-11-14T03:48:55;3.10;99.90
27848;DHT22;15212;48.830;8.730;2022-11-14T03:51:23;3.10;99.90
27848;DHT22;15212;48.830;8.730;2022-11-14T03:53:51;3.10;99.90
27848;DHT22;15212;48.830;8.730;2022-11-14T03:56:20;3.10;99.90
27848;DHT22;15212;48.830;8.730;2022-11-14T03:58:48;3.10;99.90
27848;DHT22;15212;48.830;8.730;2022-11-14T04:01:16;3.10;99.90
27848;DHT22;15212;48.830;8.730;2022-11-14T04:03:45;3.10;99.90
27848;DHT22;15212;48.830;8.730;2022-11-14T04:06:13;3.10;99.90
27848;DHT22;15212;48.830;8.730;2022-11-14T04:08:41;3.10;99.90
27848;DHT22;15212;48.830;8.730;2022-11-14T04:11:10;3.10;99.90
27848;DHT22;15212;48.830;8.730;2022-11-14T04:13:38;3.10;99.90
27848;DHT22;15212;48.830;8.730;2022-11-14T04:16:07;3.10;99.90
27848;DHT22;15212;48.830;8.730;2022-11-14T04:18:35;3.10;99.90
27848;DHT22;15212;48.830;8.730;2022-11-14T04:21:03;3.20;99.90
27848;DHT22;15212;48.830;8.730;2022-11-14T04:23:32;3.20;99.90
27848;DHT22;15212;48.830;8.730;2022-11-14T04:26:00;3.30;99.90
27848;DHT22;15212;48.830;8.730;2022-11-14T04:28:29;3.30;99.90
27848;DHT22;15212;48.830;8.730;2022-11-14T04:30:57;3.30;99.90
27848;DHT22;15212;48.830;8.730;2022-11-14T04:33:26;3.30;99.90
27848;DHT22;15212;48.830;8.730;2022-11-14T04:35:54;3.30;99.90
27848;DHT22;15212;48.830;8.730;2022-11-14T04:38:22;3.30;99.90
27848;DHT22;15212;48.830;8.730;2022-11-14T04:40:51;3.30;99.90
27848;DHT22;15212;48.830;8.730;2022-11-14T04:43:20;3.30;99.90
27848;DHT22;15212;48.830;8.730;2022-11-14T04:45:48;3.30;99.90
27848;DHT22;15212;48.830;8.730;2022-11-14T04:48:17;3.20;99.90
27848;DHT22;15212;48.830;8.730;2022-11-14T04:50:46;3.30;99.90
27848;DHT22;15212;48.830;8.730;2022-11-14T04:53:14;3.30;99.90
27848;DHT22;15212;48.830;8.730;2022-11-14T04:55:43;3.30;99.90
27848;DHT22;15212;48.830;8.730;2022-11-14T04:58:12;3.30;99.90
27848;DHT22;15212;48.830;8.730;2022-11-14T05:00:40;3.30;99.90
27848;DHT22;15212;48.830;8.730;2022-11-14T05:03:08;3.30;99.90
27848;DHT22;15212;48.830;8.730;2022-11-14T05:05:37;3.30;99.90
27848;DHT22;15212;48.830;8.730;2022-11-14T05:08:05;3.20;99.90
27848;DHT22;15212;48.830;8.730;2022-11-14T05:10:33;3.20;99.90
27848;DHT22;15212;48.830;8.730;2022-11-14T05:13:02;3.10;99.90
27848;DHT22;15212;48.830;8.730;2022-11-14T05:15:31;3.10;99.90
27848;DHT22;15212;48.830;8.730;2022-11-14T05:17:59;3.10;99.90
27848;DHT22;15212;48.830;8.730;2022-11-14T05:20:27;3.10;99.90
27848;DHT22;15212;48.830;8.730;2022-11-14T05:22:56;3.00;99.90
27848;DHT22;15212;48.830;8.730;2022-11-14T05:25:24;3.00;99.90
27848;DHT22;15212;48.830;8.730;2022-11-14T05:27:53;3.00;99.90
27848;DHT22;15212;48.830;8.730;2022-11-14T05:30:21;3.00;99.90
27848;DHT22;15212;48.830;8.730;2022-11-14T05:32:53;2.90;99.90
27848;DHT22;15212;48.830;8.730;2022-11-14T05:35:21;2.90;99.90
27848;DHT22;15212;48.830;8.730;2022-11-14T05:37:49;2.90;99.90
27848;DHT22;15212;48.830;8.730;2022-11-14T05:40:18;2.90;99.90
27848;DHT22;15212;48.830;8.730;2022-11-14T05:42:46;2.90;99.90
27848;DHT22;15212;48.830;8.730;2022-11-14T05:45:14;2.90;99.90
27848;DHT22;15212;48.830;8.730;2022-11-14T05:47:43;2.90;99.90
27848;DHT22;15212;48.830;8.730;2022-11-14T05:50:11;2.90;99.90
27848;DHT22;15212;48.830;8.730;2022-11-14T05:52:39;2.90;99.90
27848;DHT22;15212;48.830;8.730;2022-11-14T05:55:08;2.90;99.90
27848;DHT22;15212;48.830;8.730;2022-11-14T05:57:37;2.90;99.90
27848;DHT22;15212;48.830;8.730;2022-11-14T06:00:05;2.90;99.90
27848;DHT22;15212;48.830;8.730;2022-11-14T06:02:34;3.00;99.90
27848;DHT22;15212;48.830;8.730;2022-11-14T06:05:03;3.00;99.90
27848;DHT22;15212;48.830;8.730;2022-11-14T06:07:31;3.10;99.90
27848;DHT22;15212;48.830;8.730;2022-11-14T06:10:00;3.20;99.90
27848;DHT22;15212;48.830;8.730;2022-11-14T06:12:30;3.30;99.90
27848;DHT22;15212;48.830;8.730;2022-11-14T06:14:59;3.50;99.90
27848;DHT22;15212;48.830;8.730;2022-11-14T06:17:27;3.70;99.90
27848;DHT22;15212;48.830;8.730;2022-11-14T06:19:56;3.80;99.90
27848;DHT22;15212;48.830;8.730;2022-11-14T06:22:24;4.00;99.90
27848;DHT22;15212;48.830;8.730;2022-11-14T06:24:52;4.10;99.90
27848;DHT22;15212;48.830;8.730;2022-11-14T06:27:21;4.10;99.90
27848;DHT22;15212;48.830;8.730;2022-11-14T06:29:49;4.10;99.90
27848;DHT22;15212;48.830;8.730;2022-11-14T06:32:17;4.20;99.90
27848;DHT22;15212;48.830;8.730;2022-11-14T06:34:46;4.20;99.90
27848;DHT22;15212;48.830;8.730;2022-11-14T06:37:14;4.20;99.90
27848;DHT22;15212;48.830;8.730;2022-11-14T06:39:43;4.20;99.90
27848;DHT22;15212;48.830;8.730;2022-11-14T06:42:11;4.20;99.90
27848;DHT22;15212;48.830;8.730;2022-11-14T06:44:39;4.10;99.90
27848;DHT22;15212;48.830;8.730;2022-11-14T06:47:08;4.10;99.90
27848;DHT22;15212;48.830;8.730;2022-11-14T06:49:36;4.00;99.90
27848;DHT22;15212;48.830;8.730;2022-11-14T06:52:04;3.90;99.90
27848;DHT22;15212;48.830;8.730;2022-11-14T06:54:33;3.90;99.90
27848;DHT22;15212;48.830;8.730;2022-11-14T06:57:01;3.80;99.90
27848;DHT22;15212;48.830;8.730;2022-11-14T06:59:30;3.80;99.90
27848;DHT22;15212;48.830;8.730;2022-11-14T07:01:58;3.80;99.90
27848;DHT22;15212;48.830;8.730;2022-11-14T07:04:26;3.80;99.90
27848;DHT22;15212;48.830;8.730;2022-11-14T07:06:55;3.80;99.90
27848;DHT22;15212;48.830;8.730;2022-11-14T07:09:23;3.80;99.90
27848;DHT22;15212;48.830;8.730;2022-11-14T07:11:52;3.80;99.90
27848;DHT22;15212;48.830;8.730;2022-11-14T07:14:20;3.90;99.90
27848;DHT22;15212;48.830;8.730;2022-11-14T07:16:48;4.00;99.90
27848;DHT22;15212;48.830;8.730;2022-11-14T07:19:17;4.00;99.90
27848;DHT22;15212;48.830;8.730;2022-11-14T07:21:45;4.10;99.90
27848;DHT22;15212;48.830;8.730;2022-11-14T07:24:14;4.20;99.90
27848;DHT22;15212;48.830;8.730;2022-11-14T07:26:42;4.20;99.90
27848;DHT22;15212;48.830;8.730;2022-11-14T07:29:12;4.30;99.90
27848;DHT22;15212;48.830;8.730;2022-11-14T07:31:40;4.40;99.90
27848;DHT22;15212;48.830;8.730;2022-11-14T07:34:09;4.50;99.90
27848;DHT22;15212;48.830;8.730;2022-11-14T07:36:37;4.60;99.90
27848;DHT22;15212;48.830;8.730;2022-11-14T07:39:05;4.80;99.90
27848;DHT22;15212;48.830;8.730;2022-11-14T07:41:34;4.90;99.90
27848;DHT22;15212;48.830;8.730;2022-11-14T07:44:02;5.00;99.90
27848;DHT22;15212;48.830;8.730;2022-11-14T07:46:31;5.20;99.90
27848;DHT22;15212;48.830;8.730;2022-11-14T07:48:59;5.30;99.90
27848;DHT22;15212;48.830;8.730;2022-11-14T07:51:27;5.40;99.90
27848;DHT22;15212;48.830;8.730;2022-11-14T07:53:56;5.50;99.90
27848;DHT22;15212;48.830;8.730;2022-11-14T07:56:24;5.70;99.90
27848;DHT22;15212;48.830;8.730;2022-11-14T07:58:53;5.80;99.90
27848;DHT22;15212;48.830;8.730;2022-11-14T08:01:21;5.80;99.90
27848;DHT22;15212;48.830;8.730;2022-11-14T08:03:49;5.90;99.90
27848;DHT22;15212;48.830;8.730;2022-11-14T08:06:18;5.90;99.90
27848;DHT22;15212;48.830;8.730;2022-11-14T08:08:46;5.90;99.90
27848;DHT22;15212;48.830;8.730;2022-11-14T08:11:15;6.00;99.90
27848;DHT22;15212;48.830;8.730;2022-11-14T08:13:45;6.10;99.90
27848;DHT22;15212;48.830;8.730;2022-11-14T08:16:13;6.20;99.90
27848;DHT22;15212;48.830;8.730;2022-11-14T08:18:41;6.30;99.90
27848;DHT22;15212;48.830;8.730;2022-11-14T08:21:10;6.40;99.90
27848;DHT22;15212;48.830;8.730;2022-11-14T08:23:38;6.50;99.90
27848;DHT22;15212;48.830;8.730;2022-11-14T08:26:06;6.60;99.90
27848;DHT22;15212;48.830;8.730;2022-11-14T08:28:35;6.70;99.90
27848;DHT22;15212;48.830;8.730;2022-11-14T08:31:04;6.80;99.90
27848;DHT22;15212;48.830;8.730;2022-11-14T08:33:32;6.80;99.90
27848;DHT22;15212;48.830;8.730;2022-11-14T08:36:03;6.90;99.90
27848;DHT22;15212;48.830;8.730;2022-11-14T08:38:33;6.90;99.90
27848;DHT22;15212;48.830;8.730;2022-11-14T08:41:02;6.90;99.90
27848;DHT22;15212;48.830;8.730;2022-11-14T08:43:31;7.00;99.90
27848;DHT22;15212;48.830;8.730;2022-11-14T08:46:01;7.00;99.90
27848;DHT22;15212;48.830;8.730;2022-11-14T08:48:31;7.00;99.90
27848;DHT22;15212;48.830;8.730;2022-11-14T08:51:04;7.00;99.90
27848;DHT22;15212;48.830;8.730;2022-11-14T08:53:33;7.10;99.90
27848;DHT22;15212;48.830;8.730;2022-11-14T08:56:02;7.10;99.90
27848;DHT22;15212;48.830;8.730;2022-11-14T08:58:31;7.10;99.90
27848;DHT22;15212;48.830;8.730;2022-11-14T09:01:05;7.10;99.90
27848;DHT22;15212;48.830;8.730;2022-11-14T09:03:33;7.10;99.90
27848;DHT22;15212;48.830;8.730;2022-11-14T09:06:02;7.20;99.90
27848;DHT22;15212;48.830;8.730;2022-11-14T09:08:30;7.20;99.90
27848;DHT22;15212;48.830;8.730;2022-11-14T09:11:00;7.20;99.90
27848;DHT22;15212;48.830;8.730;2022-11-14T09:13:36;7.20;99.90
27848;DHT22;15212;48.830;8.730;2022-11-14T09:16:01;7.20;99.90
27848;DHT22;15212;48.830;8.730;2022-11-14T09:18:30;7.30;99.90
27848;DHT22;15212;48.830;8.730;2022-11-14T09:21:03;7.30;99.90
27848;DHT22;15212;48.830;8.730;2022-11-14T09:23:33;7.30;99.90
27848;DHT22;15212;48.830;8.730;2022-11-14T09:26:06;7.30;99.90
27848;DHT22;15212;48.830;8.730;2022-11-14T09:28:35;7.30;99.90
27848;DHT22;15212;48.830;8.730;2022-11-14T09:31:06;7.30;99.90
27848;DHT22;15212;48.830;8.730;2022-11-14T09:33:36;7.40;99.90
27848;DHT22;15212;48.830;8.730;2022-11-14T09:36:07;7.40;99.90
27848;DHT22;15212;48.830;8.730;2022-11-14T09:38:37;7.40;99.90
27848;DHT22;15212;48.830;8.730;2022-11-14T09:41:21;7.40;99.90
27848;DHT22;15212;48.830;8.730;2022-11-14T09:44:00;7.40;99.90
27848;DHT22;15212;48.830;8.730;2022-11-14T09:46:45;7.50;99.90
27848;DHT22;15212;48.830;8.730;2022-11-14T09:52:25;7.50;99.90
27848;DHT22;15212;48.830;8.730;2022-11-14T09:54:46;7.60;99.90
27848;DHT22;15212;48.830;8.730;2022-11-14T09:57:22;7.60;99.90
27848;DHT22;15212;48.830;8.730;2022-11-14T09:59:51;7.60;99.90
27848;DHT22;15212;48.830;8.730;2022-11-14T10:02:32;7.60;99.90
27848;DHT22;15212;48.830;8.730;2022-11-14T10:05:35;7.70;99.90
27848;DHT22;15212;48.830;8.730;2022-11-14T10:08:33;7.70;99.90
27848;DHT22;15212;48.830;8.730;2022-11-14T10:11:09;7.80;99.90
27848;DHT22;15212;48.830;8.730;2022-11-14T10:13:53;7.90;99.90
27848;DHT22;15212;48.830;8.730;2022-11-14T10:16:35;7.90;99.90
27848;DHT22;15212;48.830;8.730;2022-11-14T10:19:32;7.90;99.90
27848;DHT22;15212;48.830;8.730;2022-11-14T10:25:39;8.00;99.90
27848;DHT22;15212;48.830;8.730;2022-11-14T10:28:29;8.10;99.90
27848;DHT22;15212;48.830;8.730;2022-11-14T10:34:07;8.10;99.90
27848;DHT22;15212;48.830;8.730;2022-11-14T10:39:42;8.20;99.90
27848;DHT22;15212;48.830;8.730;2022-11-14T10:42:25;8.20;99.90
27848;DHT22;15212;48.830;8.730;2022-11-14T10:45:04;8.30;99.90
27848;DHT22;15212;48.830;8.730;2022-11-14T10:47:53;8.30;99.90
27848;DHT22;15212;48.830;8.730;2022-11-14T10:50:27;8.30;99.90
27848;DHT22;15212;48.830;8.730;2022-11-14T10:53:00;8.40;99.90
27848;DHT22;15212;48.830;8.730;2022-11-14T10:55:30;8.40;99.90
27848;DHT22;15212;48.830;8.730;2022-11-14T10:57:58;8.50;99.90
27848;DHT22;15212;48.830;8.730;2022-11-14T11:00:26;8.50;99.90
27848;DHT22;15212;48.830;8.730;2022-11-14T11:02:56;8.60;99.90
27848;DHT22;15212;48.830;8.730;2022-11-14T11:05:28;8.60;99.90
27848;DHT22;15212;48.830;8.730;2022-11-14T11:07:58;8.60;99.90
27848;DHT22;15212;48.830;8.730;2022-11-14T11:10:45;8.60;99.90
27848;DHT22;15212;48.830;8.730;2022-11-14T11:13:39;8.70;99.90
27848;DHT22;15212;48.830;8.730;2022-11-14T11:16:04;8.70;99.90
27848;DHT22;15212;48.830;8.730;2022-11-14T11:18:35;8.80;99.90
27848;DHT22;15212;48.830;8.730;2022-11-14T11:21:06;8.80;99.90
27848;DHT22;15212;48.830;8.730;2022-11-14T11:23:48;8.80;99.90
27848;DHT22;15212;48.830;8.730;2022-11-14T11:26:24;8.90;99.90
27848;DHT22;15212;48.830;8.730;2022-11-14T11:31:55;9.00;99.90
27848;DHT22;15212;48.830;8.730;2022-11-14T11:34:27;9.00;99.90
27848;DHT22;15212;48.830;8.730;2022-11-14T11:37:09;9.10;99.90
27848;DHT22;15212;48.830;8.730;2022-11-14T11:39:48;9.10;99.90
27848;DHT22;15212;48.830;8.730;2022-11-14T11:42:21;9.20;99.90
27848;DHT22;15212;48.830;8.730;2022-11-14T11:44:56;9.20;99.90
27848;DHT22;15212;48.830;8.730;2022-11-14T11:47:28;9.20;99.90
27848;DHT22;15212;48.830;8.730;2022-11-14T11:49:58;9.20;99.90
27848;DHT22;15212;48.830;8.730;2022-11-14T11:58:04;9.40;99.90
27848;DHT22;15212;48.830;8.730;2022-11-14T12:00:29;9.30;99.90
27848;DHT22;15212;48.830;8.730;2022-11-14T12:02:58;9.40;99.90
27848;DHT22;15212;48.830;8.730;2022-11-14T12:08:47;9.40;99.90
27848;DHT22;15212;48.830;8.730;2022-11-14T12:11:33;9.40;99.90
27848;DHT22;15212;48.830;8.730;2022-11-14T12:20:05;9.60;99.90
27848;DHT22;15212;48.830;8.730;2022-11-14T12:28:51;10.10;99.90
27848;DHT22;15212;48.830;8.730;2022-11-14T12:31:36;10.20;99.90
27848;DHT22;15212;48.830;8.730;2022-11-14T12:34:14;10.30;99.90
27848;DHT22;15212;48.830;8.730;2022-11-14T12:36:47;10.40;99.90
27848;DHT22;15212;48.830;8.730;2022-11-14T12:39:24;10.50;99.90
27848;DHT22;15212;48.830;8.730;2022-11-14T12:42:05;10.50;99.90
27848;DHT22;15212;48.830;8.730;2022-11-14T12:44:38;10.40;99.90
27848;DHT22;15212;48.830;8.730;2022-11-14T12:58:06;10.30;99.90
27848;DHT22;15212;48.830;8.730;2022-11-14T13:03:29;10.40;99.90
27848;DHT22;15212;48.830;8.730;2022-11-14T13:11:43;10.60;99.90
27848;DHT22;15212;48.830;8.730;2022-11-14T13:14:31;10.80;99.90
27848;DHT22;15212;48.830;8.730;2022-11-14T13:17:25;10.90;99.90
27848;DHT22;15212;48.830;8.730;2022-11-14T13:20:24;11.10;99.90
27848;DHT22;15212;48.830;8.730;2022-11-14T13:28:47;11.20;99.90
27848;DHT22;15212;48.830;8.730;2022-11-14T13:31:19;11.20;99.90
27848;DHT22;15212;48.830;8.730;2022-11-14T13:33:52;11.30;99.90
27848;DHT22;15212;48.830;8.730;2022-11-14T13:42:59;11.60;99.90
27848;DHT22;15212;48.830;8.730;2022-11-14T13:46:18;11.70;99.90
27848;DHT22;15212;48.830;8.730;2022-11-14T13:48:55;11.80;99.90
27848;DHT22;15212;48.830;8.730;2022-11-14T13:51:24;11.80;99.90
27848;DHT22;15212;48.830;8.730;2022-11-14T13:53:53;11.90;99.90
27848;DHT22;15212;48.830;8.730;2022-11-14T13:56:33;11.90;99.90
27848;DHT22;15212;48.830;8.730;2022-11-14T14:07:30;11.80;99.90
27848;DHT22;15212;48.830;8.730;2022-11-14T14:10:33;11.80;99.90
27848;DHT22;15212;48.830;8.730;2022-11-14T14:16:10;11.70;99.90
27848;DHT22;15212;48.830;8.730;2022-11-14T14:21:56;11.60;99.90
27848;DHT22;15212;48.830;8.730;2022-11-14T14:25:01;11.60;99.90
27848;DHT22;15212;48.830;8.730;2022-11-14T14:28:08;11.50;99.90
27848;DHT22;15212;48.830;8.730;2022-11-14T14:31:11;11.40;99.90
27848;DHT22;15212;48.830;8.730;2022-11-14T14:33:46;11.30;99.90
27848;DHT22;15212;48.830;8.730;2022-11-14T14:36:24;11.20;99.90
27848;DHT22;15212;48.830;8.730;2022-11-14T14:39:20;11.10;99.90
27848;DHT22;15212;48.830;8.730;2022-11-14T14:41:53;11.10;99.90
27848;DHT22;15212;48.830;8.730;2022-11-14T14:44:27;11.00;99.90
27848;DHT22;15212;48.830;8.730;2022-11-14T14:46:58;10.90;99.90
27848;DHT22;15212;48.830;8.730;2022-11-14T14:49:43;10.90;99.90
27848;DHT22;15212;48.830;8.730;2022-11-14T14:52:30;10.80;99.90
27848;DHT22;15212;48.830;8.730;2022-11-14T14:54:59;10.70;99.90
27848;DHT22;15212;48.830;8.730;2022-11-14T14:57:29;10.70;99.90
27848;DHT22;15212;48.830;8.730;2022-11-14T15:00:04;10.70;99.90
27848;DHT22;15212;48.830;8.730;2022-11-14T15:02:33;10.70;99.90
27848;DHT22;15212;48.830;8.730;2022-11-14T15:05:02;10.70;99.90
27848;DHT22;15212;48.830;8.730;2022-11-14T15:07:31;10.80;99.90
27848;DHT22;15212;48.830;8.730;2022-11-14T15:10:01;10.80;99.90
27848;DHT22;15212;48.830;8.730;2022-11-14T15:12:30;10.70;99.90
27848;DHT22;15212;48.830;8.730;2022-11-14T15:15:00;10.70;99.90
27848;DHT22;15212;48.830;8.730;2022-11-14T15:17:29;10.60;99.90
27848;DHT22;15212;48.830;8.730;2022-11-14T15:19:58;10.50;99.90
27848;DHT22;15212;48.830;8.730;2022-11-14T15:22:26;10.40;99.90
27848;DHT22;15212;48.830;8.730;2022-11-14T15:27:57;10.20;99.90
27848;DHT22;15212;48.830;8.730;2022-11-14T15:30:32;10.10;99.90
27848;DHT22;15212;48.830;8.730;2022-11-14T15:33:03;10.10;99.90
27848;DHT22;15212;48.830;8.730;2022-11-14T15:35:34;10.00;99.90
27848;DHT22;15212;48.830;8.730;2022-11-14T15:38:16;9.90;99.90
27848;DHT22;15212;48.830;8.730;2022-11-14T15:40:40;9.90;99.90
27848;DHT22;15212;48.830;8.730;2022-11-14T15:46:37;9.80;99.90
27848;DHT22;15212;48.830;8.730;2022-11-14T15:51:50;9.60;99.90
27848;DHT22;15212;48.830;8.730;2022-11-14T15:54:21;9.60;99.90
27848;DHT22;15212;48.830;8.730;2022-11-14T15:56:53;9.50;99.90
27848;DHT22;15212;48.830;8.730;2022-11-14T15:59:23;9.50;99.90
27848;DHT22;15212;48.830;8.730;2022-11-14T16:04:44;9.40;99.90
27848;DHT22;15212;48.830;8.730;2022-11-14T16:07:14;9.40;99.90
27848;DHT22;15212;48.830;8.730;2022-11-14T16:09:43;9.40;99.90
27848;DHT22;15212;48.830;8.730;2022-11-14T16:12:11;9.40;99.90
27848;DHT22;15212;48.830;8.730;2022-11-14T16:14:40;9.30;99.90
27848;DHT22;15212;48.830;8.730;2022-11-14T16:17:13;9.30;99.90
27848;DHT22;15212;48.830;8.730;2022-11-14T16:19:43;9.40;99.90
27848;DHT22;15212;48.830;8.730;2022-11-14T16:22:14;9.30;99.90
27848;DHT22;15212;48.830;8.730;2022-11-14T16:24:43;9.40;99.90
27848;DHT22;15212;48.830;8.730;2022-11-14T16:27:12;9.40;99.90
27848;DHT22;15212;48.830;8.730;2022-11-14T16:29:40;9.40;99.90
27848;DHT22;15212;48.830;8.730;2022-11-14T16:32:10;9.40;99.90
27848;DHT22;15212;48.830;8.730;2022-11-14T16:34:38;9.30;99.90
27848;DHT22;15212;48.830;8.730;2022-11-14T16:37:13;9.30;99.90
27848;DHT22;15212;48.830;8.730;2022-11-14T16:39:39;9.30;99.90
27848;DHT22;15212;48.830;8.730;2022-11-14T16:42:09;9.30;99.90
27848;DHT22;15212;48.830;8.730;2022-11-14T16:44:38;9.30;99.90
27848;DHT22;15212;48.830;8.730;2022-11-14T16:47:06;9.30;99.90
27848;DHT22;15212;48.830;8.730;2022-11-14T16:49:34;9.30;99.90
27848;DHT22;15212;48.830;8.730;2022-11-14T16:52:03;9.30;99.90
27848;DHT22;15212;48.830;8.730;2022-11-14T16:54:33;9.30;99.90
27848;DHT22;15212;48.830;8.730;2022-11-14T16:57:01;9.40;99.90
27848;DHT22;15212;48.830;8.730;2022-11-14T16:59:30;9.40;99.90
27848;DHT22;15212;48.830;8.730;2022-11-14T17:01:58;9.40;99.90
27848;DHT22;15212;48.830;8.730;2022-11-14T17:04:28;9.40;99.90
27848;DHT22;15212;48.830;8.730;2022-11-14T17:06:57;9.40;99.90
27848;DHT22;15212;48.830;8.730;2022-11-14T17:09:25;9.40;99.90
27848;DHT22;15212;48.830;8.730;2022-11-14T17:11:53;9.40;99.90
27848;DHT22;15212;48.830;8.730;2022-11-14T17:14:22;9.40;99.90
27848;DHT22;15212;48.830;8.730;2022-11-14T17:16:50;9.40;99.90
27848;DHT22;15212;48.830;8.730;2022-11-14T17:19:18;9.40;99.90
27848;DHT22;15212;48.830;8.730;2022-11-14T17:21:47;9.40;99.90
27848;DHT22;15212;48.830;8.730;2022-11-14T17:24:15;9.50;99.90
27848;DHT22;15212;48.830;8.730;2022-11-14T17:26:44;9.50;99.90
27848;DHT22;15212;48.830;8.730;2022-11-14T17:29:12;9.50;99.90
27848;DHT22;15212;48.830;8.730;2022-11-14T17:31:40;9.50;99.90
27848;DHT22;15212;48.830;8.730;2022-11-14T17:34:09;9.50;99.90
27848;DHT22;15212;48.830;8.730;2022-11-14T17:36:37;9.50;99.90
27848;DHT22;15212;48.830;8.730;2022-11-14T17:39:06;9.50;99.90
27848;DHT22;15212;48.830;8.730;2022-11-14T17:41:34;9.50;99.90
27848;DHT22;15212;48.830;8.730;2022-11-14T17:44:03;9.50;99.90
27848;DHT22;15212;48.830;8.730;2022-11-14T17:46:31;9.50;99.90
27848;DHT22;15212;48.830;8.730;2022-11-14T17:49:00;9.50;99.90